createdAt,value
2018-04-06T00:01:20.234Z,101817.44
2018-04-06T00:03:45.966Z,101819.58
2018-04-06T00:06:11.720Z,101821.38
2018-04-06T00:08:37.674Z,101831.22
2018-04-06T00:11:03.417Z,101829.38
2018-04-06T00:13:29.129Z,101836.56
2018-04-06T00:15:54.893Z,101821.65
2018-04-06T00:18:20.622Z,101825.10
2018-04-06T00:20:46.350Z,101832.20
2018-04-06T00:23:12.100Z,101835.17
2018-04-06T00:25:37.824Z,101833.03
2018-04-06T00:28:04.886Z,101834.78
2018-04-06T00:30:30.628Z,101846.13
2018-04-06T00:32:56.559Z,101850.50
2018-04-06T00:35:22.341Z,101851.86
2018-04-06T00:37:48.085Z,101856.73
2018-04-06T00:40:13.792Z,101856.53
2018-04-06T00:42:39.518Z,101855.63
2018-04-06T00:45:05.269Z,101854.83
2018-04-06T00:47:31.077Z,101854.03
2018-04-06T00:49:57.132Z,101862.64
2018-04-06T00:52:22.864Z,101866.44
2018-04-06T00:54:48.597Z,101862.05
2018-04-06T00:57:14.344Z,101865.91
2018-04-06T00:59:40.107Z,101865.52
2018-04-06T01:02:05.853Z,101868.67
2018-04-06T01:04:31.576Z,101872.47
2018-04-06T01:06:57.302Z,101863.23
2018-04-06T01:09:23.027Z,101870.46
2018-04-06T01:11:48.778Z,101866.12
2018-04-06T01:14:14.519Z,101869.16
2018-04-06T01:16:40.259Z,101877.70
2018-04-06T01:19:06.036Z,101883.23
2018-04-06T01:21:31.779Z,101889.83
2018-04-06T01:23:57.519Z,101894.68
2018-04-06T01:26:23.279Z,101897.64
2018-04-06T01:28:49.004Z,101892.41
2018-04-06T01:31:14.726Z,101895.82
2018-04-06T01:33:40.457Z,101894.17
2018-04-06T01:36:06.187Z,101896.30
2018-04-06T01:38:31.925Z,101896.88
2018-04-06T01:40:57.646Z,101900.83
2018-04-06T01:43:23.369Z,101901.13
2018-04-06T01:45:49.098Z,101894.17
2018-04-06T01:48:14.843Z,101906.00
2018-04-06T01:50:40.582Z,101908.88
2018-04-06T01:53:06.318Z,101910.69
2018-04-06T01:55:32.051Z,101914.48
2018-04-06T01:57:57.799Z,101919.10
2018-04-06T02:00:23.553Z,101927.39
2018-04-06T02:02:49.311Z,101924.78
2018-04-06T02:05:15.058Z,101919.55
2018-04-06T02:07:40.817Z,101929.69
2018-04-06T02:10:06.574Z,101927.77
2018-04-06T02:12:32.436Z,101934.52
2018-04-06T02:14:58.174Z,101937.30
2018-04-06T02:17:23.917Z,101933.00
2018-04-06T02:19:49.652Z,101941.50
2018-04-06T02:22:15.389Z,101945.39
2018-04-06T02:24:41.184Z,101944.34
2018-04-06T02:27:06.871Z,101941.77
2018-04-06T02:29:32.608Z,101944.92
2018-04-06T02:31:58.342Z,101949.23
2018-04-06T02:34:24.087Z,101940.08
2018-04-06T02:36:49.826Z,101939.47
2018-04-06T02:39:15.570Z,101948.72
2018-04-06T02:41:41.371Z,101945.04
2018-04-06T02:44:07.098Z,101940.26
2018-04-06T02:46:32.837Z,101945.80
2018-04-06T02:48:58.581Z,101950.48
2018-04-06T02:51:24.340Z,101940.67
2018-04-06T02:53:50.093Z,101945.14
2018-04-06T02:56:15.867Z,101945.91
2018-04-06T02:58:41.618Z,101947.11
2018-04-06T03:01:07.352Z,101950.09
2018-04-06T03:03:33.085Z,101952.33
2018-04-06T03:05:58.813Z,101948.72
2018-04-06T03:08:24.554Z,101952.33
2018-04-06T03:10:50.285Z,101954.98
2018-04-06T03:13:16.043Z,101955.36
2018-04-06T03:15:41.786Z,101956.22
2018-04-06T03:18:07.514Z,101956.63
2018-04-06T03:20:33.236Z,101958.80
2018-04-06T03:22:58.972Z,101964.02
2018-04-06T03:25:24.698Z,101966.88
2018-04-06T03:27:50.472Z,101960.69
2018-04-06T03:30:16.214Z,101963.30
2018-04-06T03:32:41.950Z,101969.45
2018-04-06T03:35:07.677Z,101969.45
2018-04-06T03:37:33.416Z,101970.76
2018-04-06T03:39:59.138Z,101979.20
2018-04-06T03:42:24.890Z,101977.22
2018-04-06T03:44:50.638Z,101984.95
2018-04-06T03:47:16.450Z,101982.00
2018-04-06T03:49:42.189Z,101986.55
2018-04-06T03:52:07.930Z,101988.06
2018-04-06T03:54:33.680Z,101981.18
2018-04-06T03:56:59.409Z,101981.94
2018-04-06T03:59:25.153Z,101988.64
2018-04-06T04:01:50.870Z,101986.06
2018-04-06T04:04:16.609Z,101984.93
2018-04-06T04:06:42.345Z,101991.46
2018-04-06T04:09:08.085Z,102003.60
2018-04-06T04:11:33.822Z,102000.81
2018-04-06T04:13:59.545Z,101996.06
2018-04-06T04:16:25.287Z,102001.74
2018-04-06T04:18:51.009Z,102003.05
2018-04-06T04:21:16.729Z,102002.60
2018-04-06T04:23:42.452Z,102014.44
2018-04-06T04:26:08.179Z,102012.55
2018-04-06T04:28:33.925Z,102021.56
2018-04-06T04:30:59.649Z,102018.56
2018-04-06T04:33:25.381Z,102023.69
2018-04-06T04:35:51.159Z,102031.31
2018-04-06T04:38:16.898Z,102032.73
2018-04-06T04:40:42.617Z,102031.36
2018-04-06T04:43:08.353Z,102026.61
2018-04-06T04:45:34.078Z,102029.74
2018-04-06T04:47:59.805Z,102036.11
2018-04-06T04:50:25.564Z,102043.54
2018-04-06T04:52:51.278Z,102047.02
2018-04-06T04:55:17.029Z,102038.86
2018-04-06T04:57:42.762Z,102046.46
2018-04-06T05:00:08.505Z,102047.84
2018-04-06T05:02:34.246Z,102046.98
2018-04-06T05:04:59.981Z,102042.78
2018-04-06T05:07:25.721Z,102045.73
2018-04-06T05:09:51.462Z,102043.02
2018-04-06T05:12:17.193Z,102047.77
2018-04-06T05:14:42.952Z,102045.73
2018-04-06T05:17:08.697Z,102062.91
2018-04-06T05:19:34.459Z,102062.08
2018-04-06T05:22:00.194Z,102063.94
2018-04-06T05:24:25.988Z,102072.84
2018-04-06T05:26:51.694Z,102069.46
2018-04-06T05:29:17.451Z,102068.59
2018-04-06T05:31:43.204Z,102070.92
2018-04-06T05:34:08.966Z,102075.71
2018-04-06T05:36:34.705Z,102076.70
2018-04-06T05:39:00.449Z,102073.67
2018-04-06T05:41:26.168Z,102075.94
2018-04-06T05:43:51.908Z,102075.05
2018-04-06T05:46:17.642Z,102087.27
2018-04-06T05:48:43.390Z,102080.84
2018-04-06T05:51:09.161Z,102077.28
2018-04-06T05:53:34.906Z,102077.84
2018-04-06T05:56:00.670Z,102078.45
2018-04-06T05:58:26.397Z,102087.73
2018-04-06T06:00:52.125Z,102091.59
2018-04-06T06:03:17.846Z,102086.88
2018-04-06T06:05:43.580Z,102087.28
2018-04-06T06:08:09.294Z,102096.95
2018-04-06T06:10:35.018Z,102096.12
2018-04-06T06:13:00.737Z,102101.84
2018-04-06T06:15:26.469Z,102100.83
2018-04-06T06:17:52.226Z,102099.61
2018-04-06T06:20:17.930Z,102106.25
2018-04-06T06:22:43.646Z,102100.77
2018-04-06T06:25:09.408Z,102101.13
2018-04-06T06:27:35.139Z,102106.00
2018-04-06T06:30:00.865Z,102108.95
2018-04-06T06:32:26.586Z,102112.38
2018-04-06T06:34:59.254Z,102110.41
2018-04-06T06:37:24.977Z,102118.69
2018-04-06T06:39:50.722Z,102112.58
2018-04-06T06:42:16.445Z,102116.09
2018-04-06T06:44:42.178Z,102115.09
2018-04-06T06:47:08.022Z,102114.08
2018-04-06T06:49:33.765Z,102113.16
2018-04-06T06:51:59.506Z,102114.44
2018-04-06T06:54:25.254Z,102123.88
2018-04-06T06:56:50.964Z,102126.48
2018-04-06T06:59:16.685Z,102124.03
2018-04-06T07:01:42.406Z,102126.31
2018-04-06T07:04:08.138Z,102125.16
2018-04-06T07:06:33.879Z,102127.16
2018-04-06T07:08:59.610Z,102120.42
2018-04-06T07:11:25.338Z,102119.58
2018-04-06T07:13:51.086Z,102116.86
2018-04-06T07:16:16.823Z,102124.73
2018-04-06T07:18:42.533Z,102113.77
2018-04-06T07:21:08.257Z,102122.49
2018-04-06T07:23:33.983Z,102124.70
2018-04-06T07:25:59.720Z,102124.72
2018-04-06T07:28:25.437Z,102114.91
2018-04-06T07:30:51.170Z,102116.95
2018-04-06T07:33:16.893Z,102117.95
2018-04-06T07:35:42.627Z,102122.11
2018-04-06T07:38:08.345Z,102120.80
2018-04-06T07:40:34.093Z,102115.33
2018-04-06T07:42:59.819Z,102109.16
2018-04-06T07:45:32.354Z,102105.50
2018-04-06T07:47:58.077Z,102103.33
2018-04-06T07:50:24.914Z,102105.12
2018-04-06T07:52:50.655Z,102108.34
2018-04-06T07:55:16.401Z,102116.23
2018-04-06T07:57:42.146Z,102110.36
2018-04-06T08:00:07.898Z,102103.65
2018-04-06T08:02:33.625Z,102110.73
2018-04-06T08:04:59.370Z,102106.51
2018-04-06T08:07:25.109Z,102108.89
2018-04-06T08:09:50.850Z,102112.41
2018-04-06T08:12:16.584Z,102110.20
2018-04-06T08:14:42.308Z,102112.45
2018-04-06T08:17:08.062Z,102106.72
2018-04-06T08:19:33.794Z,102102.41
2018-04-06T08:21:59.546Z,102098.00
2018-04-06T08:24:25.295Z,102104.77
2018-04-06T08:26:51.038Z,102105.94
2018-04-06T08:29:16.759Z,102117.45
2018-04-06T08:31:42.505Z,102118.85
2018-04-06T08:34:08.239Z,102114.93
2018-04-06T08:36:33.982Z,102120.56
2018-04-06T08:38:59.734Z,102121.95
2018-04-06T08:41:25.493Z,102140.00
2018-04-06T08:43:51.230Z,102142.52
2018-04-06T08:46:16.974Z,102147.09
2018-04-06T08:48:42.715Z,102144.17
2018-04-06T08:51:08.450Z,102148.86
2018-04-06T08:53:34.186Z,102146.80
2018-04-06T08:55:59.917Z,102138.23
2018-04-06T08:58:25.634Z,102138.63
2018-04-06T09:00:51.363Z,102146.98
2018-04-06T09:03:17.082Z,102144.83
2018-04-06T09:05:42.819Z,102153.02
2018-04-06T09:08:08.530Z,102148.78
2018-04-06T09:10:34.253Z,102152.31
2018-04-06T09:12:59.979Z,102151.02
2018-04-06T09:15:25.725Z,102149.19
2018-04-06T09:17:51.442Z,102148.72
2018-04-06T09:20:17.163Z,102154.84
2018-04-06T09:22:42.909Z,102149.65
2018-04-06T09:25:09.875Z,102149.55
2018-04-06T09:27:35.602Z,102149.58
2018-04-06T09:30:01.329Z,102153.56
2018-04-06T09:32:27.058Z,102158.40
2018-04-06T09:34:53.144Z,102162.01
2018-04-06T09:37:18.903Z,102162.41
2018-04-06T09:39:44.633Z,102160.16
2018-04-06T09:42:10.375Z,102165.08
2018-04-06T09:44:37.722Z,102169.81
2018-04-06T09:47:03.453Z,102165.70
2018-04-06T09:49:29.575Z,102160.75
2018-04-06T09:51:55.681Z,102161.50
2018-04-06T09:54:21.965Z,102155.76
2018-04-06T09:56:47.741Z,102161.63
2018-04-06T09:59:13.923Z,102165.16
2018-04-06T10:01:40.159Z,102166.95
2018-04-06T10:04:05.929Z,102169.33
2018-04-06T10:06:32.879Z,102165.48
2018-04-06T10:08:58.673Z,102172.07
2018-04-06T10:11:24.425Z,102165.03
2018-04-06T10:13:50.538Z,102163.75
2018-04-06T10:16:16.305Z,102159.37
2018-04-06T10:18:41.997Z,102166.84
2018-04-06T10:21:08.150Z,102157.47
2018-04-06T10:23:34.188Z,102159.05
2018-04-06T10:25:59.954Z,102160.72
2018-04-06T10:28:25.699Z,102160.56
2018-04-06T10:30:51.424Z,102158.90
2018-04-06T10:33:17.185Z,102151.32
2018-04-06T10:35:42.943Z,102158.75
2018-04-06T10:38:08.670Z,102152.66
2018-04-06T10:40:34.383Z,102156.88
2018-04-06T10:43:00.173Z,102157.23
2018-04-06T10:45:25.988Z,102154.55
2018-04-06T10:47:51.740Z,102156.59
2018-04-06T10:50:17.491Z,102155.14
2018-04-06T10:52:43.275Z,102151.09
2018-04-06T10:55:09.093Z,102149.80
2018-04-06T10:57:34.837Z,102144.33
2018-04-06T11:00:00.571Z,102153.05
2018-04-06T11:02:26.314Z,102148.56
2018-04-06T11:04:52.046Z,102149.55
2018-04-06T11:07:17.791Z,102162.63
2018-04-06T11:09:43.540Z,102155.39
2018-04-06T11:12:09.287Z,102153.81
2018-04-06T11:14:35.035Z,102154.14
2018-04-06T11:17:00.777Z,102151.65
2018-04-06T11:19:26.530Z,102149.61
2018-04-06T11:21:52.273Z,102147.70
2018-04-06T11:24:18.042Z,102144.39
2018-04-06T11:26:43.811Z,102142.23
2018-04-06T11:29:09.559Z,102143.77
2018-04-06T11:31:35.314Z,102140.52
2018-04-06T11:34:01.046Z,102136.80
2018-04-06T11:36:26.778Z,102138.65
2018-04-06T11:38:52.528Z,102134.96
2018-04-06T11:41:18.257Z,102141.70
2018-04-06T11:43:44.002Z,102133.02
2018-04-06T11:46:09.756Z,102127.51
2018-04-06T11:48:35.501Z,102126.39
2018-04-06T11:51:01.242Z,102127.14
2018-04-06T11:53:26.994Z,102115.33
2018-04-06T11:55:52.728Z,102119.93
2018-04-06T11:58:18.470Z,102130.29
2018-04-06T12:00:44.210Z,102122.37
2018-04-06T12:03:09.950Z,102128.33
2018-04-06T12:05:35.686Z,102135.25
2018-04-06T12:08:01.423Z,102124.72
2018-04-06T12:10:27.158Z,102127.42
2018-04-06T12:12:52.906Z,102131.25
2018-04-06T12:15:18.653Z,102130.84
2018-04-06T12:17:44.408Z,102131.04
2018-04-06T12:20:10.146Z,102121.02
2018-04-06T12:22:35.886Z,102127.17
2018-04-06T12:25:01.618Z,102121.30
2018-04-06T12:27:27.358Z,102125.77
2018-04-06T12:29:53.088Z,102123.96
2018-04-06T12:32:18.839Z,102119.86
2018-04-06T12:34:45.097Z,102114.88
2018-04-06T12:37:10.862Z,102110.12
2018-04-06T12:39:36.586Z,102108.25
2018-04-06T12:42:02.323Z,102103.23
2018-04-06T12:44:28.062Z,102099.70
2018-04-06T12:46:53.789Z,102095.80
2018-04-06T12:49:19.527Z,102093.85
2018-04-06T12:51:45.262Z,102091.58
2018-04-06T12:54:11.005Z,102096.47
2018-04-06T12:56:36.727Z,102096.18
2018-04-06T12:59:02.474Z,102082.72
2018-04-06T13:01:28.209Z,102084.11
2018-04-06T13:03:53.950Z,102078.58
2018-04-06T13:06:19.686Z,102083.64
2018-04-06T13:08:45.410Z,102079.04
2018-04-06T13:11:11.138Z,102081.55
2018-04-06T13:13:36.868Z,102085.27
2018-04-06T13:16:02.593Z,102077.30
2018-04-06T13:18:28.325Z,102074.72
2018-04-06T13:20:54.063Z,102073.55
2018-04-06T13:23:19.821Z,102074.55
2018-04-06T13:25:45.518Z,102081.71
2018-04-06T13:28:11.257Z,102082.77
2018-04-06T13:30:36.998Z,102083.38
2018-04-06T13:33:02.725Z,102082.34
2018-04-06T13:35:28.458Z,102077.44
2018-04-06T13:37:54.202Z,102071.48
2018-04-06T13:40:19.921Z,102070.89
2018-04-06T13:42:45.658Z,102068.05
2018-04-06T13:45:11.382Z,102064.58
2018-04-06T13:47:37.102Z,102057.64
2018-04-06T13:50:02.846Z,102056.34
2018-04-06T13:52:28.575Z,102055.43
2018-04-06T13:54:54.374Z,102051.92
2018-04-06T13:57:20.074Z,102051.97
2018-04-06T13:59:45.810Z,102052.83
2018-04-06T14:02:11.538Z,102056.02
2018-04-06T14:04:37.281Z,102043.50
2018-04-06T14:07:03.010Z,102036.72
2018-04-06T14:09:28.749Z,102036.27
2018-04-06T14:11:54.479Z,102038.29
2018-04-06T14:14:20.219Z,102028.48
2018-04-06T14:16:45.937Z,102022.91
2018-04-06T14:19:11.681Z,102027.48
2018-04-06T14:21:37.405Z,102021.52
2018-04-06T14:24:03.138Z,102023.36
2018-04-06T14:26:28.870Z,102020.47
2018-04-06T14:28:54.602Z,102011.77
2018-04-06T14:31:20.354Z,102017.21
2018-04-06T14:33:46.089Z,102008.73
2018-04-06T14:36:11.817Z,102006.02
2018-04-06T14:38:37.566Z,101993.62
2018-04-06T14:41:03.305Z,101993.66
2018-04-06T14:43:29.046Z,101990.25
2018-04-06T14:45:54.765Z,101984.98
2018-04-06T14:48:20.518Z,101987.94
2018-04-06T14:50:46.241Z,101984.86
2018-04-06T14:53:11.971Z,101978.49
2018-04-06T14:55:37.718Z,101979.37
2018-04-06T14:58:03.462Z,101980.09
2018-04-06T15:00:29.198Z,101977.75
2018-04-06T15:02:54.925Z,101975.28
2018-04-06T15:05:20.667Z,101972.28
2018-04-06T15:07:46.388Z,101970.94
2018-04-06T15:10:12.138Z,101966.21
2018-04-06T15:12:37.930Z,101968.47
2018-04-06T15:15:03.674Z,101965.25
2018-04-06T15:17:29.396Z,101951.05
2018-04-06T15:19:55.147Z,101952.45
2018-04-06T15:22:20.877Z,101954.15
2018-04-06T15:24:46.621Z,101952.89
2018-04-06T15:27:12.355Z,101947.66
2018-04-06T15:29:38.132Z,101954.61
2018-04-06T15:32:03.879Z,101954.64
2018-04-06T15:34:29.625Z,101949.09
2018-04-06T15:36:55.356Z,101950.98
2018-04-06T15:39:21.119Z,101947.66
2018-04-06T15:41:46.853Z,101949.47
2018-04-06T15:44:12.602Z,101945.33
2018-04-06T15:46:38.347Z,101939.33
2018-04-06T15:49:04.105Z,101940.14
2018-04-06T15:51:29.855Z,101947.05
2018-04-06T15:53:55.609Z,101949.25
2018-04-06T15:56:21.331Z,101946.62
2018-04-06T15:58:48.233Z,101939.17
2018-04-06T16:01:14.126Z,101943.16
2018-04-06T16:03:39.859Z,101935.72
2018-04-06T16:06:05.576Z,101932.14
2018-04-06T16:08:31.305Z,101930.00
2018-04-06T16:10:57.049Z,101927.97
2018-04-06T16:13:22.777Z,101921.87
2018-04-06T16:15:48.505Z,101918.80
2018-04-06T16:18:14.250Z,101917.91
2018-04-06T16:20:39.988Z,101924.91
2018-04-06T16:23:05.732Z,101918.59
2018-04-06T16:25:31.462Z,101919.75
2018-04-06T16:27:57.197Z,101918.02
2018-04-06T16:30:22.929Z,101923.19
2018-04-06T16:32:48.675Z,101916.38
2018-04-06T16:35:14.722Z,101918.89
2018-04-06T16:37:40.456Z,101916.33
2018-04-06T16:40:06.194Z,101911.37
2018-04-06T16:42:31.928Z,101909.26
2018-04-06T16:44:57.678Z,101911.49
2018-04-06T16:47:23.463Z,101907.61
2018-04-06T16:49:49.168Z,101907.69
2018-04-06T16:52:14.934Z,101907.00
2018-04-06T16:54:40.637Z,101911.52
2018-04-06T16:57:06.357Z,101904.46
2018-04-06T16:59:32.148Z,101902.30
2018-04-06T17:01:57.848Z,101899.77
2018-04-06T17:04:23.568Z,101907.36
2018-04-06T17:06:49.312Z,101904.37
2018-04-06T17:09:15.038Z,101906.23
2018-04-06T17:11:40.782Z,101905.93
2018-04-06T17:14:06.517Z,101905.67
2018-04-06T17:16:32.259Z,101908.40
2018-04-06T17:18:57.985Z,101913.77
2018-04-06T17:21:23.726Z,101910.70
2018-04-06T17:23:49.463Z,101914.36
2018-04-06T17:26:15.195Z,101909.59
2018-04-06T17:28:40.930Z,101911.43
2018-04-06T17:31:06.657Z,101914.22
2018-04-06T17:33:32.390Z,101914.77
2018-04-06T17:35:58.118Z,101912.17
2018-04-06T17:38:23.838Z,101914.92
2018-04-06T17:40:49.582Z,101916.25
2018-04-06T17:43:15.322Z,101915.41
2018-04-06T17:45:41.039Z,101907.08
2018-04-06T17:48:06.766Z,101913.73
2018-04-06T17:50:32.498Z,101919.96
2018-04-06T17:52:58.219Z,101920.44
2018-04-06T17:55:24.028Z,101922.30
2018-04-06T17:57:49.766Z,101922.78
2018-04-06T18:00:15.513Z,101922.39
2018-04-06T18:02:41.262Z,101918.41
2018-04-06T18:05:07.009Z,101921.11
2018-04-06T18:07:32.754Z,101919.86
2018-04-06T18:09:58.491Z,101926.08
2018-04-06T18:12:24.234Z,101924.31
2018-04-06T18:14:50.010Z,101918.64
2018-04-06T18:17:15.751Z,101925.22
2018-04-06T18:19:41.489Z,101923.46
2018-04-06T18:22:07.236Z,101924.80
2018-04-06T18:24:32.969Z,101931.87
2018-04-06T18:26:58.714Z,101926.65
2018-04-06T18:29:24.444Z,101924.89
2018-04-06T18:31:50.194Z,101921.39
2018-04-06T18:34:15.938Z,101924.46
2018-04-06T18:36:41.691Z,101925.34
2018-04-06T18:39:07.429Z,101933.70
2018-04-06T18:41:33.179Z,101930.22
2018-04-06T18:43:58.930Z,101936.84
2018-04-06T18:46:24.673Z,101930.24
2018-04-06T18:48:50.419Z,101929.36
2018-04-06T18:51:16.211Z,101919.72
2018-04-06T18:53:41.946Z,101921.01
2018-04-06T18:56:07.691Z,101912.23
2018-04-06T18:58:33.452Z,101914.86
2018-04-06T19:00:59.157Z,101913.06
2018-04-06T19:03:24.889Z,101915.72
2018-04-06T19:05:50.621Z,101910.02
2018-04-06T19:08:16.392Z,101909.98
2018-04-06T19:10:42.137Z,101903.41
2018-04-06T19:13:07.858Z,101905.15
2018-04-06T19:15:33.582Z,101902.96
2018-04-06T19:17:59.314Z,101908.22
2018-04-06T19:20:25.033Z,101906.48
2018-04-06T19:22:50.773Z,101906.46
2018-04-06T19:25:16.493Z,101907.30
2018-04-06T19:27:42.216Z,101896.32
2018-04-06T19:30:08.030Z,101901.16
2018-04-06T19:32:33.766Z,101894.13
2018-04-06T19:34:59.492Z,101894.58
2018-04-06T19:37:25.226Z,101896.73
2018-04-06T19:39:50.962Z,101902.03
2018-04-06T19:42:16.705Z,101898.50
2018-04-06T19:44:42.434Z,101894.97
2018-04-06T19:47:08.166Z,101895.38
2018-04-06T19:49:33.934Z,101895.39
2018-04-06T19:51:59.665Z,101898.41
2018-04-06T19:54:25.396Z,101894.05
2018-04-06T19:56:51.133Z,101891.83
2018-04-06T19:59:16.863Z,101893.56
2018-04-06T20:01:42.620Z,101895.77
2018-04-06T20:04:08.385Z,101889.62
2018-04-06T20:06:34.110Z,101878.66
2018-04-06T20:08:59.893Z,101876.00
2018-04-06T20:11:25.557Z,101877.31
2018-04-06T20:13:51.273Z,101871.61
2018-04-06T20:16:17.002Z,101873.80
2018-04-06T20:18:42.729Z,101881.70
2018-04-06T20:21:08.455Z,101875.52
2018-04-06T20:23:34.194Z,101869.38
2018-04-06T20:25:59.913Z,101871.55
2018-04-06T20:28:25.642Z,101866.73
2018-04-06T20:30:51.379Z,101866.30
2018-04-06T20:33:17.104Z,101855.31
2018-04-06T20:35:42.825Z,101846.11
2018-04-06T20:38:08.570Z,101835.17
2018-04-06T20:40:34.304Z,101837.39
2018-04-06T20:43:00.039Z,101846.19
2018-04-06T20:45:25.761Z,101844.45
2018-04-06T20:47:51.508Z,101837.85
2018-04-06T20:50:17.265Z,101835.66
2018-04-06T20:52:42.986Z,101830.38
2018-04-06T20:55:08.734Z,101826.45
2018-04-06T20:57:34.485Z,101826.45
2018-04-06T21:00:00.225Z,101814.14
2018-04-06T21:02:25.975Z,101810.19
2018-04-06T21:04:51.710Z,101808.44
2018-04-06T21:07:17.445Z,101807.96
2018-04-06T21:09:43.169Z,101807.98
2018-04-06T21:12:08.914Z,101801.38
2018-04-06T21:14:34.675Z,101792.58
2018-04-06T21:17:00.426Z,101789.52
2018-04-06T21:19:26.162Z,101779.41
2018-04-06T21:21:51.934Z,101779.88
2018-04-06T21:24:17.670Z,101786.00
2018-04-06T21:26:43.406Z,101788.23
2018-04-06T21:29:09.178Z,101787.80
2018-04-06T21:31:34.973Z,101784.72
2018-04-06T21:34:00.662Z,101782.52
2018-04-06T21:36:26.381Z,101786.47
2018-04-06T21:38:52.121Z,101782.05
2018-04-06T21:41:17.859Z,101779.41
2018-04-06T21:43:43.602Z,101784.27
2018-04-06T21:46:09.334Z,101782.05
2018-04-06T21:48:35.085Z,101773.75
2018-04-06T21:51:00.824Z,101775.94
2018-04-06T21:53:26.674Z,101774.23
2018-04-06T21:55:52.427Z,101772.50
2018-04-06T21:58:18.184Z,101776.45
2018-04-06T22:00:43.959Z,101774.66
2018-04-06T22:03:09.665Z,101773.80
2018-04-06T22:05:35.397Z,101771.19
2018-04-06T22:08:01.127Z,101775.59
2018-04-06T22:10:26.906Z,101770.33
2018-04-06T22:12:52.652Z,101766.38
2018-04-06T22:15:18.381Z,101762.41
2018-04-06T22:17:44.109Z,101754.97
2018-04-06T22:20:09.827Z,101756.72
2018-04-06T22:22:35.558Z,101760.67
2018-04-06T22:25:01.298Z,101761.12
2018-04-06T22:27:27.093Z,101756.25
2018-04-06T22:29:52.839Z,101755.86
2018-04-06T22:32:18.583Z,101762.00
2018-04-06T22:34:44.333Z,101760.66
2018-04-06T22:37:10.068Z,101755.86
2018-04-06T22:39:35.794Z,101751.90
2018-04-06T22:42:01.536Z,101748.41
2018-04-06T22:44:27.265Z,101747.51
2018-04-06T22:46:52.977Z,101733.47
2018-04-06T22:49:19.519Z,101743.15
2018-04-06T22:51:45.249Z,101737.88
2018-04-06T22:54:10.997Z,101731.71
2018-04-06T22:56:36.725Z,101732.17
2018-04-06T22:59:02.464Z,101731.28
2018-04-06T23:01:28.190Z,101730.39
2018-04-06T23:03:53.942Z,101733.91
2018-04-06T23:06:19.662Z,101730.39
2018-04-06T23:08:45.414Z,101722.94
2018-04-06T23:11:11.158Z,101733.47
2018-04-06T23:13:36.892Z,101730.83
2018-04-06T23:16:02.680Z,101733.88
2018-04-06T23:18:28.465Z,101736.08
2018-04-06T23:20:54.198Z,101729.94
2018-04-06T23:23:19.950Z,101725.11
2018-04-06T23:25:45.686Z,101723.81
2018-04-06T23:28:11.430Z,101727.73
2018-04-06T23:30:37.162Z,101717.61
2018-04-06T23:33:02.914Z,101721.15
2018-04-06T23:35:28.654Z,101718.94
2018-04-06T23:37:54.545Z,101715.87
2018-04-06T23:40:20.275Z,101714.53
2018-04-06T23:42:46.047Z,101713.64
2018-04-06T23:45:11.792Z,101707.07
2018-04-06T23:47:37.517Z,101710.12
2018-04-06T23:50:03.253Z,101706.62
2018-04-06T23:52:29.221Z,101707.48
2018-04-06T23:54:54.981Z,101707.03
2018-04-06T23:57:20.714Z,101702.21
2018-04-06T23:59:46.461Z,101701.31
